Terminal Aerodrome Forecast
Issued by NWS

Home | Current Version | Previous Version | Text Only | Print | Product List | Glossary On
Versions: 1 2 3 4 5 6 7 8 9 10 11 12 13 14 15 16 17 18 19 20 21 22
000
FTUS44 KMAF 050300 AAA
TAFHOB
TAF AMD
KHOB 050313Z 0503/0524 05015G25KT P6SM BKN012 OVC025
     FM050600 04013KT P6SM OVC015
     FM051000 02008KT P6SM BKN012
     FM051500 VRB04KT P6SM SCT015
     FM051800 14006KT P6SM SKC=

USA.gov is the U.S. government's official web portal to all federal, state and local government web resources and services.